Time;durP1;ratioP1;P1;durP2;ratioP2;P2;SDS_P1;SDS_P2;PMS_P1;PMS_P2;Temp;Humidity;BMP_temperature;BMP_pressure;BME280_temperature;BME280_humidity;BME280_pressure;Samples;Min_cycle;Max_cycle;Signal;HPM_P1;HPM_P2
2023/07/18 00:00:37;;;;;;;8.20;2.55;;;;;;;;;;4959567;28;20027;-78
2023/07/18 00:03:03;;;;;;;6.07;2.67;;;;;;;;;;4960341;29;20109;-79
2023/07/18 00:05:30;;;;;;;4.10;2.75;;;;;;;;;;4960357;29;20145;-81
2023/07/18 00:07:56;;;;;;;4.93;2.50;;;;;;;;;;4976457;28;20055;-78
2023/07/18 00:10:22;;;;;;;3.50;2.50;;;;;;;;;;4975582;28;20035;-78
2023/07/18 00:12:48;;;;;;;5.55;2.58;;;;;;;;;;4960729;29;20035;-78
2023/07/18 00:15:16;;;;;;;20.77;3.40;;;;;;;;;;4961981;28;20050;-79
2023/07/18 00:17:43;;;;;;;7.65;2.80;;;;;;;;;;4962141;28;20035;-80
2023/07/18 00:20:12;;;;;;;10.35;2.80;;;;;;;;;;4961563;29;20494;-79
2023/07/18 00:22:40;;;;;;;6.45;3.05;;;;;;;;;;4978789;28;20058;-80
2023/07/18 00:25:10;;;;;;;4.80;2.55;;;;;;;;;;4966982;29;20439;-79
2023/07/18 00:27:38;;;;;;;10.55;2.70;;;;;;;;;;4963957;29;20027;-79
2023/07/18 00:30:07;;;;;;;7.75;2.63;;;;;;;;;;4948193;28;20041;-79
2023/07/18 00:32:33;;;;;;;10.25;2.70;;;;;;;;;;4985039;28;20070;-77
2023/07/18 00:34:58;;;;;;;4.90;2.60;;;;;;;;;;4990516;28;20055;-77
2023/07/18 00:37:24;;;;;;;5.95;2.28;;;;;;;;;;4976828;28;20023;-77
2023/07/18 00:39:51;;;;;;;6.82;2.63;;;;;;;;;;4972213;28;20023;-78
2023/07/18 00:42:19;;;;;;;9.20;2.47;;;;;;;;;;4962818;28;20026;-78
2023/07/18 00:44:48;;;;;;;4.45;2.00;;;;;;;;;;4963174;28;20146;-78
2023/07/18 00:47:16;;;;;;;9.70;2.65;;;;;;;;;;4962497;28;20034;-77
2023/07/18 00:49:42;;;;;;;6.10;2.65;;;;;;;;;;4958447;28;20031;-78
2023/07/18 00:52:08;;;;;;;8.55;2.67;;;;;;;;;;4977710;28;20030;-79
2023/07/18 00:54:35;;;;;;;6.30;2.08;;;;;;;;;;4981205;28;20037;-79
2023/07/18 00:57:01;;;;;;;12.02;2.50;;;;;;;;;;4980164;28;20033;-79
2023/07/18 00:59:29;;;;;;;4.65;2.20;;;;;;;;;;4962919;28;20054;-78
2023/07/18 01:01:57;;;;;;;7.00;2.47;;;;;;;;;;4962520;28;20034;-79
2023/07/18 01:04:22;;;;;;;13.32;2.60;;;;;;;;;;4980043;28;20030;-79
2023/07/18 01:06:48;;;;;;;8.15;2.30;;;;;;;;;;4980134;28;20491;-80
2023/07/18 01:09:15;;;;;;;7.28;2.45;;;;;;;;;;4962401;28;20031;-79
2023/07/18 01:11:41;;;;;;;7.28;2.40;;;;;;;;;;4980162;28;20107;-80
2023/07/18 01:14:09;;;;;;;5.22;2.17;;;;;;;;;;4979873;28;20030;-80
2023/07/18 01:16:35;;;;;;;12.82;3.15;;;;;;;;;;4963193;28;20438;-79
2023/07/18 01:19:01;;;;;;;18.17;3.40;;;;;;;;;;4976949;28;20125;-79
2023/07/18 01:21:27;;;;;;;4.72;2.08;;;;;;;;;;4941912;28;20034;-78
2023/07/18 01:23:53;;;;;;;7.50;2.60;;;;;;;;;;4962173;28;20037;-80
2023/07/18 01:26:19;;;;;;;4.60;1.95;;;;;;;;;;4962510;28;20037;-79
2023/07/18 01:28:45;;;;;;;6.22;2.30;;;;;;;;;;4979596;28;20439;-79
2023/07/18 01:31:11;;;;;;;9.07;2.72;;;;;;;;;;4961616;28;20495;-78
2023/07/18 01:33:37;;;;;;;8.20;2.17;;;;;;;;;;4961463;28;20383;-79
2023/07/18 01:36:03;;;;;;;11.15;2.20;;;;;;;;;;4978495;28;20031;-80
2023/07/18 01:38:29;;;;;;;8.57;2.85;;;;;;;;;;4961306;28;20415;-77
2023/07/18 01:40:59;;;;;;;6.10;2.28;;;;;;;;;;4978236;28;20045;-77
2023/07/18 01:43:26;;;;;;;5.78;2.22;;;;;;;;;;4979181;28;20031;-78
2023/07/18 01:45:52;;;;;;;3.47;1.92;;;;;;;;;;4961526;28;20027;-77
2023/07/18 01:48:19;;;;;;;7.30;1.67;;;;;;;;;;4978584;28;20085;-78
2023/07/18 01:50:46;;;;;;;3.35;1.83;;;;;;;;;;4961686;28;20475;-79
2023/07/18 01:53:14;;;;;;;3.08;1.95;;;;;;;;;;4961352;28;20027;-77
2023/07/18 01:55:41;;;;;;;4.20;2.10;;;;;;;;;;4979846;28;20537;-78
2023/07/18 01:58:07;;;;;;;6.93;2.13;;;;;;;;;;4977369;28;20014;-77
2023/07/18 02:00:35;;;;;;;2.67;1.92;;;;;;;;;;4961200;28;20034;-78
2023/07/18 02:03:01;;;;;;;5.25;2.08;;;;;;;;;;4978509;28;20059;-81
2023/07/18 02:05:30;;;;;;;2.88;2.05;;;;;;;;;;4978973;28;20114;-78
2023/07/18 02:08:00;;;;;;;4.43;1.70;;;;;;;;;;4960678;28;20031;-78
2023/07/18 02:10:26;;;;;;;14.35;2.40;;;;;;;;;;4962119;28;20022;-79
2023/07/18 02:12:54;;;;;;;3.60;1.52;;;;;;;;;;4961233;28;20069;-79
2023/07/18 02:15:21;;;;;;;3.70;1.90;;;;;;;;;;4977986;28;20033;-79
2023/07/18 02:17:49;;;;;;;2.47;1.38;;;;;;;;;;4945206;28;20030;-79
2023/07/18 02:20:15;;;;;;;3.13;1.50;;;;;;;;;;4963824;28;20030;-79
2023/07/18 02:22:44;;;;;;;2.08;1.33;;;;;;;;;;4981044;28;20033;-79
2023/07/18 02:25:10;;;;;;;2.38;1.40;;;;;;;;;;4983801;28;20044;-77
2023/07/18 02:27:40;;;;;;;4.35;1.73;;;;;;;;;;4983462;28;20121;-79
2023/07/18 02:30:14;;;;;;;6.22;1.45;;;;;;;;;;4983506;28;20336;-77
2023/07/18 02:32:46;;;;;;;6.22;1.92;;;;;;;;;;5001596;28;20092;-79
2023/07/18 02:35:17;;;;;;;3.28;1.13;;;;;;;;;;5001551;28;20105;-80
2023/07/18 02:37:43;;;;;;;2.47;1.20;;;;;;;;;;5001673;28;20273;-79
2023/07/18 02:40:09;;;;;;;1.95;1.10;;;;;;;;;;5000625;28;20060;-78
2023/07/18 02:42:36;;;;;;;1.88;1.50;;;;;;;;;;5002044;28;20097;-78
2023/07/18 02:45:03;;;;;;;1.80;1.13;;;;;;;;;;5001542;28;20018;-78
2023/07/18 02:47:30;;;;;;;5.47;1.50;;;;;;;;;;4983938;28;20402;-79
2023/07/18 02:49:56;;;;;;;5.07;1.23;;;;;;;;;;4984190;28;20128;-79
2023/07/18 02:52:21;;;;;;;1.58;0.90;;;;;;;;;;4984692;28;20073;-78
2023/07/18 02:54:50;;;;;;;2.65;0.90;;;;;;;;;;4984267;28;20033;-79
2023/07/18 02:57:15;;;;;;;3.42;1.17;;;;;;;;;;5002553;28;20057;-79
2023/07/18 02:59:41;;;;;;;1.38;1.08;;;;;;;;;;5004093;28;20022;-79
2023/07/18 03:02:07;;;;;;;4.68;1.20;;;;;;;;;;4988427;28;20026;-79
2023/07/18 03:04:33;;;;;;;4.22;1.60;;;;;;;;;;4969974;28;20049;-78
2023/07/18 03:07:00;;;;;;;2.75;1.20;;;;;;;;;;4985890;28;20106;-78
2023/07/18 03:09:27;;;;;;;4.70;1.00;;;;;;;;;;4986138;28;20034;-77
2023/07/18 03:11:54;;;;;;;1.60;0.93;;;;;;;;;;5003060;28;20034;-77
2023/07/18 03:14:20;;;;;;;7.72;1.40;;;;;;;;;;4985264;28;20045;-77
2023/07/18 03:16:45;;;;;;;9.20;1.58;;;;;;;;;;4985018;28;20026;-79
2023/07/18 03:19:11;;;;;;;3.85;1.27;;;;;;;;;;4983683;28;20088;-78
2023/07/18 03:21:37;;;;;;;4.30;1.48;;;;;;;;;;5000597;28;20018;-79
2023/07/18 03:24:07;;;;;;;3.13;1.20;;;;;;;;;;4999142;28;20019;-78
2023/07/18 03:26:36;;;;;;;2.17;1.30;;;;;;;;;;4982692;28;20026;-79
2023/07/18 03:29:04;;;;;;;4.10;1.25;;;;;;;;;;4981653;28;20030;-78
2023/07/18 03:31:30;;;;;;;3.83;1.30;;;;;;;;;;4978624;28;20157;-77
2023/07/18 03:33:55;;;;;;;2.25;1.20;;;;;;;;;;4979574;28;20409;-78
2023/07/18 03:36:21;;;;;;;4.10;1.60;;;;;;;;;;4994355;28;20030;-79
2023/07/18 03:38:46;;;;;;;5.05;1.90;;;;;;;;;;4981100;28;20034;-79
2023/07/18 03:41:12;;;;;;;5.22;1.92;;;;;;;;;;4981093;28;20030;-77
2023/07/18 03:43:38;;;;;;;3.42;1.70;;;;;;;;;;4996427;28;20053;-77
2023/07/18 03:46:06;;;;;;;3.67;1.23;;;;;;;;;;4982136;28;20033;-79
2023/07/18 03:48:31;;;;;;;2.95;1.27;;;;;;;;;;4997964;28;20061;-79
2023/07/18 03:51:04;;;;;;;4.43;1.33;;;;;;;;;;4982069;28;20094;-79
2023/07/18 03:53:29;;;;;;;2.90;1.38;;;;;;;;;;4998164;28;20023;-78
2023/07/18 03:56:05;;;;;;;3.08;1.38;;;;;;;;;;4984115;28;20026;-79
2023/07/18 03:58:32;;;;;;;3.10;1.35;;;;;;;;;;4967734;28;20050;-78
2023/07/18 04:00:58;;;;;;;2.35;1.38;;;;;;;;;;4998820;28;20066;-77
2023/07/18 04:03:24;;;;;;;6.90;1.70;;;;;;;;;;4999079;28;20023;-77
2023/07/18 04:05:51;;;;;;;2.22;1.33;;;;;;;;;;4983272;28;20027;-78
2023/07/18 04:08:18;;;;;;;5.53;1.67;;;;;;;;;;5000524;28;20046;-78
2023/07/18 04:10:44;;;;;;;5.35;1.73;;;;;;;;;;4984889;28;20026;-77
2023/07/18 04:13:10;;;;;;;7.82;2.08;;;;;;;;;;4967903;28;20034;-78
2023/07/18 04:15:36;;;;;;;5.07;1.40;;;;;;;;;;4986732;28;20027;-79
2023/07/18 04:18:02;;;;;;;1.40;1.23;;;;;;;;;;5002896;28;20459;-77
2023/07/18 04:20:29;;;;;;;2.90;1.40;;;;;;;;;;4987050;28;20027;-79
2023/07/18 04:22:54;;;;;;;3.83;1.52;;;;;;;;;;5003205;28;20026;-77
2023/07/18 04:25:21;;;;;;;4.75;1.48;;;;;;;;;;4987470;28;20031;-80
2023/07/18 04:27:48;;;;;;;4.18;1.13;;;;;;;;;;4980242;28;20094;-79
2023/07/18 04:30:14;;;;;;;3.17;1.15;;;;;;;;;;4996554;28;20022;-78
2023/07/18 04:32:41;;;;;;;7.60;2.00;;;;;;;;;;4978801;28;20066;-80
2023/07/18 04:35:08;;;;;;;3.67;1.45;;;;;;;;;;4980094;28;20090;-78
2023/07/18 04:37:34;;;;;;;4.45;2.08;;;;;;;;;;4980756;28;20034;-79
2023/07/18 04:40:00;;;;;;;6.13;1.58;;;;;;;;;;4996109;28;20034;-78
2023/07/18 04:42:29;;;;;;;4.82;1.55;;;;;;;;;;4982504;28;20023;-79
2023/07/18 04:44:55;;;;;;;2.58;1.35;;;;;;;;;;4985035;28;20027;-78
2023/07/18 04:47:21;;;;;;;3.15;1.10;;;;;;;;;;4986406;28;20042;-78
2023/07/18 04:49:47;;;;;;;4.20;1.90;;;;;;;;;;5002853;28;20466;-78
2023/07/18 04:52:15;;;;;;;4.15;1.27;;;;;;;;;;4990051;28;20019;-79
2023/07/18 04:54:41;;;;;;;2.13;1.30;;;;;;;;;;4988490;28;20023;-79
2023/07/18 04:57:06;;;;;;;4.70;2.08;;;;;;;;;;4981154;28;20099;-79
2023/07/18 04:59:32;;;;;;;5.88;1.88;;;;;;;;;;4994984;28;20117;-79
2023/07/18 05:01:58;;;;;;;6.13;1.67;;;;;;;;;;4977999;28;20505;-80
2023/07/18 05:04:25;;;;;;;5.13;1.35;;;;;;;;;;4994577;28;20030;-79
2023/07/18 05:06:51;;;;;;;4.20;1.80;;;;;;;;;;4978484;28;20018;-78
2023/07/18 05:09:17;;;;;;;4.90;1.88;;;;;;;;;;4978749;28;20022;-78
2023/07/18 05:11:43;;;;;;;7.20;1.88;;;;;;;;;;4979260;28;20130;-79
2023/07/18 05:14:09;;;;;;;7.25;2.10;;;;;;;;;;4979097;28;20589;-78
2023/07/18 05:16:35;;;;;;;5.82;1.98;;;;;;;;;;4983042;28;20030;-79
2023/07/18 05:19:01;;;;;;;6.38;2.88;;;;;;;;;;4980315;28;20107;-77
2023/07/18 05:21:30;;;;;;;4.20;1.70;;;;;;;;;;4986727;28;20031;-79
2023/07/18 05:23:56;;;;;;;4.45;1.50;;;;;;;;;;4960559;28;20023;-79
2023/07/18 05:26:25;;;;;;;7.00;1.60;;;;;;;;;;4975231;28;20035;-78
2023/07/18 05:28:53;;;;;;;3.58;2.15;;;;;;;;;;4959057;28;20023;-78
2023/07/18 05:31:20;;;;;;;5.80;1.63;;;;;;;;;;4958238;29;20050;-78
2023/07/18 05:33:54;;;;;;;4.00;1.58;;;;;;;;;;4958639;29;20035;-78
2023/07/18 05:36:29;;;;;;;4.35;1.92;;;;;;;;;;4957211;29;20104;-78
2023/07/18 05:38:56;;;;;;;5.40;1.13;;;;;;;;;;4971620;28;20444;-78
2023/07/18 05:41:24;;;;;;;6.63;2.35;;;;;;;;;;4957617;28;20082;-79
2023/07/18 05:43:54;;;;;;;4.95;2.10;;;;;;;;;;4958241;28;20057;-77
2023/07/18 05:46:23;;;;;;;5.47;1.50;;;;;;;;;;4956141;28;20031;-76
2023/07/18 05:48:52;;;;;;;4.15;1.80;;;;;;;;;;4940885;29;20047;-79
2023/07/18 05:51:21;;;;;;;7.63;2.30;;;;;;;;;;4948405;28;20138;-80
2023/07/18 05:53:57;;;;;;;3.10;1.92;;;;;;;;;;4965161;28;20024;-77
2023/07/18 05:56:25;;;;;;;4.20;1.70;;;;;;;;;;4956786;28;20031;-75
2023/07/18 05:58:54;;;;;;;5.40;2.20;;;;;;;;;;4959185;28;20464;-78
2023/07/18 06:01:29;;;;;;;5.72;1.48;;;;;;;;;;4974320;28;20057;-78
2023/07/18 06:03:56;;;;;;;4.35;1.48;;;;;;;;;;4957362;28;20130;-78
2023/07/18 06:06:22;;;;;;;4.10;1.17;;;;;;;;;;4954926;28;20526;-76
2023/07/18 06:08:47;;;;;;;5.78;1.45;;;;;;;;;;4956818;28;20027;-76
2023/07/18 06:11:13;;;;;;;5.47;1.25;;;;;;;;;;4967539;28;20023;-77
2023/07/18 06:13:39;;;;;;;3.28;1.88;;;;;;;;;;4962466;28;20578;-76
2023/07/18 06:16:04;;;;;;;4.45;1.25;;;;;;;;;;4947334;28;20035;-77
2023/07/18 06:18:30;;;;;;;3.88;2.00;;;;;;;;;;4947290;28;20419;-78
2023/07/18 06:20:56;;;;;;;1.98;1.27;;;;;;;;;;4947494;28;20331;-76
2023/07/18 06:23:21;;;;;;;2.97;2.00;;;;;;;;;;4946635;28;21449;-77
2023/07/18 06:25:47;;;;;;;2.55;1.55;;;;;;;;;;4953790;28;20050;-77
2023/07/18 06:28:13;;;;;;;1.77;1.10;;;;;;;;;;4967548;28;20059;-77
2023/07/18 06:30:39;;;;;;;4.32;1.35;;;;;;;;;;4944956;28;20051;-77
2023/07/18 06:33:05;;;;;;;3.47;1.30;;;;;;;;;;4944284;28;20948;-78
2023/07/18 06:35:32;;;;;;;4.05;2.13;;;;;;;;;;4975124;28;20057;-76
2023/07/18 06:37:57;;;;;;;2.75;1.33;;;;;;;;;;4953907;28;20037;-77
2023/07/18 06:40:23;;;;;;;1.88;1.35;;;;;;;;;;4956753;28;20027;-78
2023/07/18 06:42:48;;;;;;;6.55;1.88;;;;;;;;;;4961839;28;20084;-78
2023/07/18 06:45:14;;;;;;;3.95;1.38;;;;;;;;;;4968419;28;20122;-77
2023/07/18 06:47:40;;;;;;;9.38;2.08;;;;;;;;;;4977706;28;20042;-78
2023/07/18 06:50:07;;;;;;;5.63;1.33;;;;;;;;;;4958408;28;20557;-77
2023/07/18 06:52:33;;;;;;;5.97;1.52;;;;;;;;;;4953259;28;20030;-78
2023/07/18 06:54:58;;;;;;;5.43;1.50;;;;;;;;;;4976044;28;20482;-75
2023/07/18 06:57:24;;;;;;;3.00;1.40;;;;;;;;;;4970801;28;20027;-77
2023/07/18 06:59:50;;;;;;;5.68;1.70;;;;;;;;;;4965584;28;20034;-78
2023/07/18 07:02:16;;;;;;;7.20;1.95;;;;;;;;;;4948954;28;20026;-78
2023/07/18 07:04:42;;;;;;;4.15;1.40;;;;;;;;;;4971586;28;20035;-77
2023/07/18 07:07:11;;;;;;;4.07;0.93;;;;;;;;;;4954722;28;20520;-76
2023/07/18 07:09:37;;;;;;;1.98;1.50;;;;;;;;;;4970961;28;20483;-80
2023/07/18 07:12:04;;;;;;;2.55;1.40;;;;;;;;;;4966415;28;20154;-78
2023/07/18 07:14:30;;;;;;;7.38;1.73;;;;;;;;;;4955513;28;20026;-77
2023/07/18 07:16:58;;;;;;;4.03;1.30;;;;;;;;;;4953794;28;20082;-75
2023/07/18 07:19:24;;;;;;;4.18;1.30;;;;;;;;;;4966405;28;20066;-77
2023/07/18 07:21:51;;;;;;;5.72;1.65;;;;;;;;;;4963959;28;20046;-79
2023/07/18 07:24:17;;;;;;;3.50;1.40;;;;;;;;;;4969423;28;20030;-75
2023/07/18 07:26:45;;;;;;;5.82;1.80;;;;;;;;;;4969880;28;20041;-77
2023/07/18 07:29:13;;;;;;;3.72;1.35;;;;;;;;;;4969368;28;20042;-77
2023/07/18 07:31:40;;;;;;;1.30;0.98;;;;;;;;;;4965938;28;20031;-75
2023/07/18 07:34:05;;;;;;;1.92;1.23;;;;;;;;;;4953619;28;20030;-74
2023/07/18 07:36:33;;;;;;;2.08;1.20;;;;;;;;;;4966334;28;20053;-77
2023/07/18 07:39:00;;;;;;;3.10;1.20;;;;;;;;;;4957952;28;20411;-78
2023/07/18 07:41:26;;;;;;;2.22;1.70;;;;;;;;;;4968618;28;20586;-75
2023/07/18 07:43:52;;;;;;;2.50;1.40;;;;;;;;;;4948881;28;20113;-78
2023/07/18 07:46:18;;;;;;;4.95;1.60;;;;;;;;;;4962649;28;20027;-77
2023/07/18 07:48:44;;;;;;;5.93;1.48;;;;;;;;;;4969643;28;20118;-75
2023/07/18 07:51:16;;;;;;;4.90;1.52;;;;;;;;;;4964079;28;20031;-76
2023/07/18 07:53:43;;;;;;;4.97;2.17;;;;;;;;;;4973495;28;20042;-75
2023/07/18 07:56:09;;;;;;;4.45;1.50;;;;;;;;;;4955513;28;20030;-77
2023/07/18 07:58:37;;;;;;;4.65;1.73;;;;;;;;;;4972100;28;20029;-76
2023/07/18 08:01:04;;;;;;;2.83;1.25;;;;;;;;;;4972984;28;20082;-75
2023/07/18 08:03:31;;;;;;;5.72;1.88;;;;;;;;;;4952462;28;20027;-76
2023/07/18 08:05:58;;;;;;;2.28;1.13;;;;;;;;;;4964566;28;20500;-75
2023/07/18 08:08:25;;;;;;;2.78;1.33;;;;;;;;;;4949476;28;20038;-75
2023/07/18 08:10:57;;;;;;;2.25;1.65;;;;;;;;;;4942172;28;20050;-78
2023/07/18 08:13:23;;;;;;;6.78;1.75;;;;;;;;;;4951047;28;20030;-75
2023/07/18 08:15:48;;;;;;;2.85;1.73;;;;;;;;;;4971204;28;20062;-78
2023/07/18 08:18:14;;;;;;;10.05;2.63;;;;;;;;;;4953484;28;20085;-79
2023/07/18 08:20:40;;;;;;;2.13;1.55;;;;;;;;;;4969082;28;20435;-75
2023/07/18 08:23:09;;;;;;;4.55;2.08;;;;;;;;;;4964768;28;20102;-75
2023/07/18 08:25:38;;;;;;;6.13;1.80;;;;;;;;;;4965034;28;20140;-76
2023/07/18 08:28:04;;;;;;;3.70;1.90;;;;;;;;;;4951788;28;20817;-76
2023/07/18 08:30:31;;;;;;;2.70;1.10;;;;;;;;;;4965477;28;20031;-82
2023/07/18 08:32:59;;;;;;;4.53;1.67;;;;;;;;;;4955715;28;20051;-76
2023/07/18 08:35:25;;;;;;;6.63;1.85;;;;;;;;;;4972126;28;20046;-75
2023/07/18 08:37:51;;;;;;;2.78;1.73;;;;;;;;;;4962194;28;20157;-73
2023/07/18 08:40:17;;;;;;;7.60;1.83;;;;;;;;;;4949517;28;20026;-78
2023/07/18 08:42:43;;;;;;;5.43;1.90;;;;;;;;;;4973745;28;20031;-81
2023/07/18 08:45:13;;;;;;;6.20;1.80;;;;;;;;;;4956764;28;20081;-79
2023/07/18 08:47:42;;;;;;;4.78;1.70;;;;;;;;;;4959392;28;20027;-74
2023/07/18 08:50:10;;;;;;;2.97;1.75;;;;;;;;;;4959002;28;20032;-77
2023/07/18 08:52:38;;;;;;;5.45;1.50;;;;;;;;;;4952151;28;20054;-75
2023/07/18 08:55:07;;;;;;;6.65;2.05;;;;;;;;;;4976829;28;20209;-78
2023/07/18 08:57:34;;;;;;;4.20;2.38;;;;;;;;;;4942703;28;20524;-75
2023/07/18 09:00:04;;;;;;;3.17;1.35;;;;;;;;;;4963271;28;20038;-77
2023/07/18 09:02:30;;;;;;;8.00;1.75;;;;;;;;;;4945874;28;20034;-78
2023/07/18 09:04:56;;;;;;;7.38;1.90;;;;;;;;;;4949344;28;20038;-77
2023/07/18 09:07:26;;;;;;;4.00;1.70;;;;;;;;;;4950533;28;20031;-78
2023/07/18 09:09:57;;;;;;;9.23;1.77;;;;;;;;;;4965316;28;20034;-76
2023/07/18 09:12:23;;;;;;;6.00;1.92;;;;;;;;;;4947861;28;20038;-78
2023/07/18 09:14:55;;;;;;;3.72;1.80;;;;;;;;;;4947058;28;20044;-78
2023/07/18 09:17:21;;;;;;;4.22;1.70;;;;;;;;;;4953985;28;20026;-77
2023/07/18 09:19:48;;;;;;;7.07;2.30;;;;;;;;;;4968728;28;20525;-77
2023/07/18 09:22:19;;;;;;;3.33;1.90;;;;;;;;;;4951017;28;20023;-77
2023/07/18 09:24:46;;;;;;;5.32;1.85;;;;;;;;;;4953022;28;20038;-76
2023/07/18 09:27:19;;;;;;;4.07;1.70;;;;;;;;;;4967878;28;20101;-79
2023/07/18 09:29:46;;;;;;;3.08;1.45;;;;;;;;;;4965013;28;20337;-79
2023/07/18 09:32:22;;;;;;;5.47;1.83;;;;;;;;;;4945075;28;20137;-77
2023/07/18 09:34:52;;;;;;;4.93;1.75;;;;;;;;;;4938733;28;20049;-76
2023/07/18 09:37:18;;;;;;;;;;;;;;;;;;4966386;28;20120;-77
2023/07/18 09:39:45;;;;;;;5.88;2.05;;;;;;;;;;4963259;28;19973;-75
2023/07/18 09:42:12;;;;;;;4.85;1.77;;;;;;;;;;4959762;28;20079;-77
2023/07/18 09:44:41;;;;;;;7.55;1.95;;;;;;;;;;4946127;28;20038;-78
2023/07/18 09:47:07;;;;;;;4.65;1.73;;;;;;;;;;4963214;28;20635;-76
2023/07/18 09:49:36;;;;;;;7.00;1.80;;;;;;;;;;4942058;28;20061;-77
2023/07/18 09:52:06;;;;;;;4.03;2.10;;;;;;;;;;4960749;28;20447;-81
2023/07/18 09:54:32;;;;;;;4.10;1.90;;;;;;;;;;4961678;28;20098;-77
2023/07/18 09:57:09;;;;;;;3.50;1.92;;;;;;;;;;4952879;28;20023;-78
2023/07/18 09:59:37;;;;;;;4.00;1.65;;;;;;;;;;4959923;28;20527;-78
2023/07/18 10:02:08;;;;;;;5.10;1.80;;;;;;;;;;4958207;28;20023;-79
2023/07/18 10:04:34;;;;;;;4.68;1.90;;;;;;;;;;4958508;28;20455;-77
2023/07/18 10:07:01;;;;;;;3.65;1.50;;;;;;;;;;4947397;28;20066;-79
2023/07/18 10:09:27;;;;;;;2.15;1.63;;;;;;;;;;4945949;28;20424;-77
2023/07/18 10:11:59;;;;;;;4.65;2.25;;;;;;;;;;4955130;28;20106;-75
2023/07/18 10:14:48;;;;;;;7.45;2.58;;;;;;;;;;4962833;28;20034;-78
2023/07/18 10:17:42;;;;;;;3.80;1.98;;;;;;;;;;4949900;28;20137;-78
2023/07/18 10:20:19;;;;;;;3.00;1.75;;;;;;;;;;4972552;28;20073;-79
2023/07/18 10:22:49;;;;;;;3.22;2.03;;;;;;;;;;4944377;28;20257;-77
2023/07/18 10:25:20;;;;;;;3.70;1.90;;;;;;;;;;4946344;28;20475;-79
2023/07/18 10:27:47;;;;;;;4.57;2.17;;;;;;;;;;4952526;28;20035;-80
2023/07/18 10:30:15;;;;;;;7.32;2.00;;;;;;;;;;4950138;28;20100;-77
2023/07/18 10:32:43;;;;;;;4.68;2.00;;;;;;;;;;4959353;28;20058;-77
2023/07/18 10:35:15;;;;;;;6.03;2.00;;;;;;;;;;4947902;28;20038;-79
2023/07/18 10:37:46;;;;;;;9.80;1.92;;;;;;;;;;4940068;28;20031;-76
2023/07/18 10:40:43;;;;;;;3.17;1.83;;;;;;;;;;4946531;28;20039;-79
2023/07/18 10:43:16;;;;;;;3.58;1.73;;;;;;;;;;4945389;28;20028;-79
2023/07/18 10:45:43;;;;;;;3.38;2.05;;;;;;;;;;4962065;28;20033;-78
2023/07/18 10:48:19;;;;;;;2.92;1.80;;;;;;;;;;4941520;28;20105;-78
2023/07/18 10:50:47;;;;;;;11.57;1.88;;;;;;;;;;4944944;28;20026;-79
2023/07/18 10:53:18;;;;;;;4.80;1.50;;;;;;;;;;4949853;28;20031;-78
2023/07/18 10:55:46;;;;;;;3.03;1.70;;;;;;;;;;4948432;28;20031;-81
2023/07/18 10:58:16;;;;;;;5.22;1.90;;;;;;;;;;4955163;28;20046;-80
2023/07/18 11:00:42;;;;;;;3.10;1.75;;;;;;;;;;4950878;28;20127;-77
2023/07/18 11:03:34;;;;;;;4.40;1.88;;;;;;;;;;4953412;28;20114;-78
2023/07/18 11:06:04;;;;;;;4.43;1.60;;;;;;;;;;4951379;28;20035;-78
2023/07/18 11:08:37;;;;;;;15.77;1.98;;;;;;;;;;4949756;28;20043;-76
2023/07/18 11:11:04;;;;;;;6.28;2.28;;;;;;;;;;4944439;28;20073;-78
2023/07/18 11:13:35;;;;;;;5.15;2.33;;;;;;;;;;4947801;28;20054;-80
2023/07/18 11:16:06;;;;;;;6.00;1.77;;;;;;;;;;4944107;28;20031;-80
2023/07/18 11:18:34;;;;;;;4.00;1.75;;;;;;;;;;4948359;28;20123;-79
2023/07/18 11:21:04;;;;;;;4.35;1.33;;;;;;;;;;4949753;28;20047;-78
2023/07/18 11:23:31;;;;;;;3.50;2.25;;;;;;;;;;4929214;28;20031;-79
2023/07/18 11:26:14;;;;;;;4.53;1.88;;;;;;;;;;4944812;28;20039;-78
2023/07/18 11:28:41;;;;;;;8.70;2.60;;;;;;;;;;4959111;28;20038;-79
2023/07/18 11:31:28;;;;;;;7.25;1.80;;;;;;;;;;4945887;28;20047;-78
2023/07/18 11:33:57;;;;;;;3.78;1.55;;;;;;;;;;4949525;28;20041;-78
2023/07/18 11:36:29;;;;;;;5.30;2.38;;;;;;;;;;4947481;28;20038;-78
2023/07/18 11:38:54;;;;;;;2.60;1.65;;;;;;;;;;4947161;28;20039;-77
2023/07/18 11:41:39;;;;;;;3.70;1.77;;;;;;;;;;4947416;28;20030;-76
2023/07/18 11:44:06;;;;;;;5.20;1.67;;;;;;;;;;4946244;28;20047;-78
2023/07/18 11:46:41;;;;;;;4.03;1.83;;;;;;;;;;4946124;28;20503;-76
2023/07/18 11:49:08;;;;;;;6.00;2.17;;;;;;;;;;4962923;28;20035;-75
2023/07/18 11:51:35;;;;;;;3.72;1.90;;;;;;;;;;4946478;28;20094;-77
2023/07/18 11:54:01;;;;;;;7.55;1.90;;;;;;;;;;4941867;28;20039;-78
2023/07/18 11:56:28;;;;;;;3.13;2.10;;;;;;;;;;4946754;28;20023;-77
2023/07/18 11:58:54;;;;;;;5.00;2.50;;;;;;;;;;4947079;28;20042;-78
2023/07/18 12:01:19;;;;;;;3.70;2.03;;;;;;;;;;4955208;28;20027;-77
2023/07/18 12:03:45;;;;;;;2.65;1.55;;;;;;;;;;4944820;28;20548;-76
2023/07/18 12:06:11;;;;;;;3.97;1.80;;;;;;;;;;4951243;28;20505;-75
2023/07/18 12:08:36;;;;;;;3.90;1.70;;;;;;;;;;4943437;28;20035;-79
2023/07/18 12:11:03;;;;;;;4.75;1.75;;;;;;;;;;4951741;28;20034;-79
2023/07/18 12:13:32;;;;;;;4.50;1.60;;;;;;;;;;4943337;28;20126;-78
2023/07/18 12:15:57;;;;;;;7.20;2.47;;;;;;;;;;4940374;28;20039;-76
2023/07/18 12:18:24;;;;;;;7.40;1.98;;;;;;;;;;4945232;28;20042;-76
2023/07/18 12:20:53;;;;;;;5.82;1.95;;;;;;;;;;4959576;28;20118;-76
2023/07/18 12:23:22;;;;;;;5.00;2.22;;;;;;;;;;4934694;28;20383;-80
2023/07/18 12:25:50;;;;;;;4.60;1.90;;;;;;;;;;4946709;28;20023;-76
2023/07/18 12:28:20;;;;;;;5.85;2.47;;;;;;;;;;4959091;28;20040;-75
2023/07/18 12:30:48;;;;;;;6.30;2.10;;;;;;;;;;4947666;28;20061;-76
2023/07/18 12:33:15;;;;;;;5.22;2.33;;;;;;;;;;4968448;28;20042;-77
2023/07/18 12:35:44;;;;;;;5.85;1.73;;;;;;;;;;4967386;28;20038;-79
2023/07/18 12:38:10;;;;;;;4.25;1.77;;;;;;;;;;4974734;28;20076;-76
2023/07/18 12:40:39;;;;;;;4.75;2.10;;;;;;;;;;4964147;28;20042;-78
2023/07/18 12:43:13;;;;;;;2.83;1.73;;;;;;;;;;4964401;28;21816;-79
2023/07/18 12:45:50;;;;;;;4.20;1.98;;;;;;;;;;4940763;28;20034;-78
2023/07/18 12:48:16;;;;;;;6.18;1.85;;;;;;;;;;4963180;28;20436;-79
2023/07/18 12:50:43;;;;;;;4.68;2.13;;;;;;;;;;4949278;28;20041;-78
2023/07/18 12:53:11;;;;;;;2.53;1.73;;;;;;;;;;4965799;28;21136;-78
2023/07/18 12:55:37;;;;;;;6.65;2.53;;;;;;;;;;4949772;28;20057;-77
2023/07/18 12:58:09;;;;;;;5.07;2.05;;;;;;;;;;4964818;28;20068;-78
2023/07/18 13:00:40;;;;;;;3.67;2.08;;;;;;;;;;4955494;28;20030;-77
2023/07/18 13:03:13;;;;;;;2.95;2.10;;;;;;;;;;4951434;28;20034;-77
2023/07/18 13:05:43;;;;;;;4.50;1.77;;;;;;;;;;4954844;28;20041;-76
2023/07/18 13:08:11;;;;;;;4.80;2.03;;;;;;;;;;4962838;28;20063;-78
2023/07/18 13:10:46;;;;;;;2.90;1.80;;;;;;;;;;4975399;28;20124;-78
2023/07/18 13:13:14;;;;;;;8.40;2.00;;;;;;;;;;4966085;28;20062;-78
2023/07/18 13:15:43;;;;;;;3.38;1.90;;;;;;;;;;4971373;28;20035;-78
2023/07/18 13:18:15;;;;;;;3.35;2.35;;;;;;;;;;4985042;28;20122;-77
2023/07/18 13:20:50;;;;;;;2.90;1.65;;;;;;;;;;4986025;28;20041;-78
2023/07/18 13:23:16;;;;;;;7.22;2.00;;;;;;;;;;4980387;28;20090;-78
2023/07/18 13:25:42;;;;;;;5.05;1.73;;;;;;;;;;4991153;28;20026;-77
2023/07/18 13:28:13;;;;;;;3.40;2.00;;;;;;;;;;4985612;28;20051;-77
2023/07/18 13:30:39;;;;;;;3.63;1.60;;;;;;;;;;4958369;28;20027;-79
2023/07/18 13:33:12;;;;;;;14.80;2.53;;;;;;;;;;4986995;28;20050;-78
2023/07/18 13:35:41;;;;;;;7.35;1.92;;;;;;;;;;4969358;28;20023;-76
2023/07/18 13:38:11;;;;;;;4.60;1.98;;;;;;;;;;4968210;28;20514;-80
2023/07/18 13:40:36;;;;;;;5.47;1.63;;;;;;;;;;4961020;28;20082;-79
2023/07/18 13:43:02;;;;;;;5.10;2.00;;;;;;;;;;4969501;28;20276;-79
2023/07/18 13:45:28;;;;;;;4.80;2.55;;;;;;;;;;4962347;28;20031;-78
2023/07/18 13:47:54;;;;;;;4.80;2.10;;;;;;;;;;4977580;28;20027;-78
2023/07/18 13:50:21;;;;;;;6.18;2.22;;;;;;;;;;4960727;28;20796;-78
2023/07/18 13:52:47;;;;;;;5.43;2.08;;;;;;;;;;4962541;28;20026;-78
2023/07/18 13:55:15;;;;;;;8.35;2.00;;;;;;;;;;4954358;28;20533;-78
2023/07/18 13:57:44;;;;;;;6.00;1.85;;;;;;;;;;4965853;28;20043;-79
2023/07/18 14:00:10;;;;;;;3.35;1.45;;;;;;;;;;4948765;28;20413;-77
2023/07/18 14:02:36;;;;;;;3.67;2.30;;;;;;;;;;4952718;28;20022;-81
2023/07/18 14:05:08;;;;;;;2.28;1.80;;;;;;;;;;4962665;28;20146;-78
2023/07/18 14:07:35;;;;;;;6.30;3.10;;;;;;;;;;4965471;28;20031;-80
2023/07/18 14:10:01;;;;;;;1.95;1.65;;;;;;;;;;4973783;28;20023;-79
2023/07/18 14:12:27;;;;;;;3.70;2.28;;;;;;;;;;4953788;28;20169;-81
2023/07/18 14:14:54;;;;;;;4.80;2.20;;;;;;;;;;4978991;28;20360;-78
2023/07/18 14:17:24;;;;;;;3.08;1.80;;;;;;;;;;4945001;28;20530;-81
2023/07/18 14:19:50;;;;;;;3.92;2.20;;;;;;;;;;4973136;28;20026;-80
2023/07/18 14:22:19;;;;;;;3.95;1.88;;;;;;;;;;4953052;28;20026;-81
2023/07/18 14:24:47;;;;;;;2.33;1.80;;;;;;;;;;4949887;28;20069;-75
2023/07/18 14:27:13;;;;;;;3.85;1.90;;;;;;;;;;4955554;28;20035;-75
2023/07/18 14:29:42;;;;;;;4.75;2.20;;;;;;;;;;4973610;28;20045;-77
2023/07/18 14:32:11;;;;;;;5.38;2.33;;;;;;;;;;4971223;28;20106;-75
2023/07/18 14:34:37;;;;;;;5.70;2.00;;;;;;;;;;4944114;28;20034;-76
2023/07/18 14:37:06;;;;;;;5.72;1.98;;;;;;;;;;4964518;28;20042;-77
2023/07/18 14:39:38;;;;;;;5.38;1.98;;;;;;;;;;4947620;28;20372;-80
2023/07/18 14:42:04;;;;;;;6.25;2.08;;;;;;;;;;4965222;28;20034;-80
2023/07/18 14:44:31;;;;;;;3.42;1.67;;;;;;;;;;4980676;28;20050;-79
2023/07/18 14:47:00;;;;;;;3.97;2.22;;;;;;;;;;4976011;28;20537;-80